Time;durP1;ratioP1;P1;durP2;ratioP2;P2;SDS_P1;SDS_P2;PMS_P1;PMS_P2;Temp;Humidity;BMP_temperature;BMP_pressure;BME280_temperature;BME280_humidity;BME280_pressure;Samples;Min_cycle;Max_cycle;Signal;HPM_P1;HPM_P2
2022/01/21 00:01:04;;;;;;;2.10;0.50;;;1.20;74.80;;;;;;5063023;28;20165;-70
2022/01/21 00:03:30;;;;;;;3.10;0.70;;;1.20;75.10;;;;;;5059851;28;20036;-70
2022/01/21 00:05:56;;;;;;;3.97;0.75;;;1.20;76.00;;;;;;5063021;28;20038;-70
2022/01/21 00:08:22;;;;;;;2.08;0.57;;;1.10;75.40;;;;;;5067559;28;20035;-69
2022/01/21 00:10:47;;;;;;;3.30;0.73;;;1.10;75.00;;;;;;5069026;28;20032;-70
2022/01/21 00:13:46;;;;;;;4.75;0.73;;;1.10;75.50;;;;;;5062813;28;20146;-70
2022/01/21 00:16:08;;;;;;;4.18;1.10;;;1.10;75.30;;;;;;5065631;28;20048;-70
2022/01/21 00:18:36;;;;;;;5.07;0.82;;;1.10;74.20;;;;;;5059107;28;20040;-67
2022/01/21 00:32:02;;;;;;;1.85;0.70;;;1.00;74.50;;;;;;5072160;28;20395;-67
2022/01/21 00:34:28;;;;;;;3.25;1.08;;;1.00;74.70;;;;;;5067084;28;20081;-68
2022/01/21 00:36:53;;;;;;;2.88;0.57;;;0.90;75.60;;;;;;5072880;28;20032;-70
2022/01/21 00:39:23;;;;;;;5.85;0.90;;;0.90;75.60;;;;;;5067302;28;20107;-68
2022/01/21 00:42:14;;;;;;;4.40;0.93;;;0.90;75.90;;;;;;5076128;28;20028;-70
2022/01/21 00:44:40;;;;;;;2.92;0.60;;;0.80;76.40;;;;;;5085712;28;20028;-70
2022/01/21 00:47:06;;;;;;;2.88;0.80;;;0.80;75.80;;;;;;5074258;28;20053;-70
2022/01/21 00:49:33;;;;;;;4.20;0.80;;;0.80;75.90;;;;;;5063675;28;20040;-67
2022/01/21 00:51:59;;;;;;;1.92;0.80;;;0.80;75.90;;;;;;5070478;28;20039;-67
2022/01/21 00:54:25;;;;;;;2.60;0.47;;;0.80;75.90;;;;;;5064591;28;20032;-69
2022/01/21 00:56:50;;;;;;;4.10;0.63;;;0.80;75.00;;;;;;5071031;28;20064;-70
2022/01/21 00:59:16;;;;;;;2.95;0.75;;;0.80;75.00;;;;;;5071189;28;20023;-67
2022/01/21 01:01:42;;;;;;;1.38;0.50;;;0.70;74.80;;;;;;5075801;28;20029;-68
2022/01/21 01:04:09;;;;;;;6.60;0.70;;;0.70;74.70;;;;;;5064190;28;20051;-68
2022/01/21 01:06:34;;;;;;;3.22;0.82;;;0.70;74.90;;;;;;5068314;28;20036;-68
2022/01/21 01:09:00;;;;;;;5.03;1.70;;;0.70;75.80;;;;;;5066681;28;20032;-69
2022/01/21 01:22:07;;;;;;;0.80;0.60;;;0.60;75.30;;;;;;5070608;28;20779;-68
2022/01/21 01:27:40;;;;;;;4.60;0.85;;;0.60;76.30;;;;;;5068726;28;20468;-68
2022/01/21 01:30:09;;;;;;;5.43;0.95;;;0.50;75.30;;;;;;5074275;28;20056;-68
2022/01/21 01:32:35;;;;;;;2.67;0.80;;;0.60;75.30;;;;;;5080825;28;20036;-68
2022/01/21 01:35:01;;;;;;;3.15;0.68;;;0.60;75.40;;;;;;5065978;28;20070;-68
2022/01/21 01:37:43;;;;;;;2.90;0.80;;;0.60;75.60;;;;;;5069949;28;20067;-68
2022/01/21 01:50:53;;;;;;;4.53;0.80;;;0.50;74.70;;;;;;5068079;28;20817;-68
2022/01/21 01:53:27;;;;;;;5.57;1.70;;;0.50;75.20;;;;;;5084072;28;20104;-68
2022/01/21 01:55:53;;;;;;;4.88;0.73;;;0.50;74.90;;;;;;5080139;28;20028;-68
2022/01/21 01:58:19;;;;;;;4.97;0.88;;;0.50;74.90;;;;;;5067543;28;20020;-68
2022/01/21 02:00:45;;;;;;;4.90;0.80;;;0.60;75.10;;;;;;5072372;28;20838;-68
2022/01/21 02:03:14;;;;;;;7.82;0.65;;;0.50;76.30;;;;;;5066386;28;20045;-69
2022/01/21 02:05:40;;;;;;;4.72;0.82;;;0.50;75.50;;;;;;5068123;28;20028;-68
2022/01/21 02:08:07;;;;;;;2.83;1.05;;;0.50;75.70;;;;;;5084922;28;20490;-69
2022/01/21 02:10:36;;;;;;;1.48;0.70;;;0.50;76.00;;;;;;5068833;28;20036;-68
2022/01/21 02:13:16;;;;;;;2.83;1.00;;;0.50;76.50;;;;;;5075125;28;20059;-68
2022/01/21 02:15:43;;;;;;;3.85;1.25;;;0.50;77.10;;;;;;5069302;28;20037;-68
2022/01/21 02:23:38;;;;;;;3.90;0.73;;;0.50;76.60;;;;;;5087587;28;20027;-68
2022/01/21 02:26:04;;;;;;;2.10;0.50;;;0.50;76.00;;;;;;5067812;28;20043;-68
2022/01/21 02:28:31;;;;;;;4.07;0.93;;;0.60;76.80;;;;;;5068565;28;20036;-68
2022/01/21 02:30:59;;;;;;;2.47;0.68;;;0.60;75.60;;;;;;5066424;28;20090;-68
2022/01/21 02:33:26;;;;;;;3.35;1.38;;;0.50;75.50;;;;;;5080503;28;20067;-68
2022/01/21 02:35:55;;;;;;;1.13;0.50;;;0.50;75.70;;;;;;5069190;28;20032;-68
2022/01/21 02:38:21;;;;;;;5.82;0.70;;;0.50;75.70;;;;;;5072664;28;20077;-68
2022/01/21 02:40:47;;;;;;;6.93;1.00;;;0.50;75.50;;;;;;5067222;28;20024;-68
2022/01/21 02:43:14;;;;;;;7.75;0.85;;;0.50;75.40;;;;;;5065169;28;20032;-68
2022/01/21 02:45:45;;;;;;;2.42;0.73;;;0.50;75.40;;;;;;5066030;28;20070;-68
2022/01/21 02:48:12;;;;;;;5.32;0.85;;;0.50;76.20;;;;;;5060934;28;20102;-68
2022/01/21 02:50:42;;;;;;;3.67;1.17;;;0.50;75.70;;;;;;5072500;28;20376;-69
2022/01/21 02:53:12;;;;;;;4.25;0.70;;;0.50;76.60;;;;;;5071665;28;20039;-68
2022/01/21 02:55:38;;;;;;;3.45;0.85;;;0.50;75.70;;;;;;5069078;28;20496;-68
2022/01/21 02:58:04;;;;;;;7.40;0.95;;;0.50;75.70;;;;;;5064807;28;20481;-68
2022/01/21 03:00:31;;;;;;;2.95;0.68;;;0.40;75.70;;;;;;5065049;28;20064;-74
2022/01/21 03:02:57;;;;;;;1.80;0.52;;;0.40;75.90;;;;;;5044441;28;20119;-73
2022/01/21 03:05:23;;;;;;;6.43;0.68;;;0.40;75.30;;;;;;5067094;28;20044;-74
2022/01/21 03:07:49;;;;;;;3.60;0.80;;;0.50;75.50;;;;;;5075781;28;20111;-74
2022/01/21 03:10:15;;;;;;;5.90;1.42;;;0.40;75.30;;;;;;5067755;28;20488;-74
2022/01/21 03:12:42;;;;;;;1.45;0.70;;;0.40;75.20;;;;;;5080911;28;20101;-74
2022/01/21 03:15:08;;;;;;;6.80;1.05;;;0.40;75.90;;;;;;5067001;28;20141;-74
2022/01/21 03:17:34;;;;;;;3.13;0.50;;;0.50;75.00;;;;;;5059852;28;20715;-74
2022/01/21 03:20:03;;;;;;;3.10;0.65;;;0.40;75.50;;;;;;5063651;28;20063;-74
2022/01/21 03:22:29;;;;;;;5.95;0.80;;;0.40;74.30;;;;;;5070349;28;20488;-74
2022/01/21 03:24:54;;;;;;;4.38;0.88;;;0.40;74.30;;;;;;5071721;28;20116;-74
2022/01/21 03:27:21;;;;;;;1.30;0.50;;;0.40;74.80;;;;;;5062062;28;20059;-74
2022/01/21 03:29:46;;;;;;;2.78;0.52;;;0.30;75.80;;;;;;5075260;28;20051;-73
2022/01/21 03:32:13;;;;;;;3.95;0.80;;;0.30;75.20;;;;;;5061851;28;20032;-73
2022/01/21 03:34:39;;;;;;;3.88;0.70;;;0.30;75.00;;;;;;5064842;28;20031;-74
2022/01/21 03:37:05;;;;;;;4.72;0.77;;;0.30;75.40;;;;;;5068508;28;20024;-74
2022/01/21 03:39:31;;;;;;;1.88;0.50;;;0.20;75.50;;;;;;5059913;28;20025;-73
2022/01/21 03:41:59;;;;;;;5.40;0.88;;;0.20;76.50;;;;;;5062517;28;20034;-73
2022/01/21 03:44:25;;;;;;;2.40;0.43;;;0.20;75.90;;;;;;5065427;28;20028;-74
2022/01/21 03:46:50;;;;;;;3.28;0.70;;;0.30;75.10;;;;;;5063341;28;20036;-73
2022/01/21 03:49:17;;;;;;;4.53;0.60;;;0.20;75.10;;;;;;5064319;28;20028;-74
2022/01/21 03:51:44;;;;;;;3.53;0.73;;;0.20;74.40;;;;;;5059934;28;20058;-73
2022/01/21 03:54:09;;;;;;;3.67;1.02;;;0.20;75.40;;;;;;5063133;28;20131;-73
2022/01/21 03:56:37;;;;;;;4.70;1.10;;;0.20;74.80;;;;;;5069499;28;20032;-73
2022/01/21 03:59:02;;;;;;;3.50;0.65;;;0.20;74.60;;;;;;5074871;28;20041;-73
2022/01/21 04:01:29;;;;;;;2.53;0.70;;;0.20;75.30;;;;;;5075335;28;20035;-73
2022/01/21 04:03:55;;;;;;;2.17;0.70;;;0.20;74.30;;;;;;5079239;28;20028;-74
2022/01/21 04:06:21;;;;;;;4.00;0.70;;;0.20;74.40;;;;;;5073347;28;20043;-74
2022/01/21 04:08:46;;;;;;;4.63;0.95;;;0.10;74.20;;;;;;5068932;28;20492;-73
2022/01/21 04:11:13;;;;;;;4.00;0.90;;;0.10;75.20;;;;;;5091986;28;20038;-73
2022/01/21 04:13:45;;;;;;;2.33;0.90;;;0.10;74.60;;;;;;5093914;28;20028;-73
2022/01/21 04:16:16;;;;;;;3.08;0.90;;;0.10;74.20;;;;;;5080523;28;20107;-73
2022/01/21 04:18:41;;;;;;;1.65;0.70;;;0.10;73.70;;;;;;5077980;28;20119;-74
2022/01/21 04:21:10;;;;;;;3.25;0.77;;;0.10;74.70;;;;;;5073561;28;20106;-74
2022/01/21 04:23:36;;;;;;;1.60;0.57;;;0.10;75.20;;;;;;5068239;28;20035;-74
2022/01/21 04:26:03;;;;;;;3.78;0.50;;;0.10;75.40;;;;;;5066488;28;20032;-73
2022/01/21 04:28:29;;;;;;;4.68;0.70;;;0.10;75.60;;;;;;5073978;28;20032;-74
2022/01/21 04:30:59;;;;;;;2.42;0.40;;;0.10;75.50;;;;;;5080016;28;20024;-74
2022/01/21 04:33:31;;;;;;;3.00;0.65;;;0.10;74.60;;;;;;5068509;28;20486;-74
2022/01/21 04:36:03;;;;;;;4.45;0.80;;;0.20;75.40;;;;;;5074088;28;20510;-74
2022/01/21 04:38:32;;;;;;;3.97;0.90;;;0.20;75.10;;;;;;5069344;28;20082;-74
2022/01/21 04:41:21;;;;;;;3.13;0.65;;;0.10;74.40;;;;;;5070055;28;20024;-73
2022/01/21 04:49:18;;;;;;;5.38;0.70;;;0.10;74.20;;;;;;5079504;28;20039;-74
2022/01/21 04:52:02;;;;;;;2.67;0.38;;;0.10;73.60;;;;;;5070925;28;20135;-74
2022/01/21 04:54:34;;;;;;;4.13;1.00;;;0.10;73.30;;;;;;5064968;28;20128;-73
2022/01/21 04:57:00;;;;;;;5.18;1.10;;;0.10;74.30;;;;;;5071196;28;20286;-74
2022/01/21 04:59:26;;;;;;;1.15;0.63;;;0.10;73.80;;;;;;5059792;28;20411;-74
2022/01/21 05:01:53;;;;;;;4.30;0.73;;;0.10;74.20;;;;;;5072806;28;20048;-74
2022/01/21 05:04:20;;;;;;;1.77;0.52;;;0.10;74.80;;;;;;5069846;28;20135;-74
2022/01/21 05:06:48;;;;;;;3.35;1.08;;;0.10;75.60;;;;;;5068241;28;20477;-75
2022/01/21 05:09:17;;;;;;;5.03;0.60;;;0.10;75.50;;;;;;5067177;28;20409;-74
2022/01/21 05:11:45;;;;;;;1.85;0.22;;;0.10;73.50;;;;;;5067342;28;20488;-74
2022/01/21 05:14:24;;;;;;;3.55;0.70;;;0.10;74.70;;;;;;5071826;28;20044;-74
2022/01/21 05:17:04;;;;;;;4.70;0.50;;;0.00;75.50;;;;;;5084597;28;20143;-74
2022/01/21 05:19:30;;;;;;;1.58;0.43;;;0.00;76.20;;;;;;5068439;28;20032;-74
2022/01/21 05:22:21;;;;;;;2.33;0.52;;;0.00;76.00;;;;;;5078299;28;20028;-74
2022/01/21 05:24:50;;;;;;;4.95;0.57;;;0.00;76.20;;;;;;5061911;28;20086;-74
2022/01/21 05:27:15;;;;;;;4.00;0.75;;;0.00;75.60;;;;;;5066384;28;20032;-74
2022/01/21 05:29:45;;;;;;;2.20;0.50;;;0.00;75.40;;;;;;5076920;28;20062;-74
2022/01/21 05:32:20;;;;;;;6.25;0.70;;;0.00;76.10;;;;;;5063322;28;20024;-74
2022/01/21 05:35:06;;;;;;;1.42;0.47;;;0.00;76.40;;;;;;5076853;28;20043;-74
2022/01/21 05:37:47;;;;;;;6.45;0.90;;;0.00;75.90;;;;;;5069041;28;20095;-74
2022/01/21 05:40:31;;;;;;;2.17;0.57;;;0.00;75.70;;;;;;5071450;28;20043;-74
2022/01/21 05:43:02;;;;;;;4.82;0.90;;;0.00;75.30;;;;;;5076194;28;20063;-73
2022/01/21 05:48:51;;;;;;;7.10;1.35;;;0.00;76.70;;;;;;5055799;28;20862;-73
2022/01/21 05:51:37;;;;;;;5.20;1.67;;;0.00;75.80;;;;;;5071014;28;20072;-73
2022/01/21 05:54:15;;;;;;;4.32;1.13;;;0.00;76.10;;;;;;5074388;28;20464;-75
2022/01/21 05:56:54;;;;;;;1.45;0.85;;;0.00;75.60;;;;;;5083143;28;20060;-72
2022/01/21 05:59:32;;;;;;;1.70;0.50;;;0.00;76.60;;;;;;5065483;28;20059;-73
2022/01/21 06:01:58;;;;;;;1.48;0.77;;;0.00;76.80;;;;;;5064854;28;20039;-73
2022/01/21 06:04:24;;;;;;;3.65;0.98;;;-0.10;77.00;;;;;;5068236;28;20028;-74
2022/01/21 06:06:50;;;;;;;3.63;1.30;;;0.00;77.40;;;;;;5065521;28;20060;-73
2022/01/21 06:09:16;;;;;;;4.80;1.30;;;-0.10;77.70;;;;;;5073395;28;20074;-73
2022/01/21 06:11:42;;;;;;;4.25;1.50;;;-0.10;77.20;;;;;;5069452;28;20052;-73
2022/01/21 06:14:07;;;;;;;4.63;1.15;;;-0.10;76.90;;;;;;5069336;28;20032;-74
2022/01/21 06:16:38;;;;;;;3.60;2.08;;;-0.10;76.80;;;;;;5085580;28;20036;-75
2022/01/21 06:19:03;;;;;;;7.35;3.38;;;-0.10;76.80;;;;;;5066539;28;20032;-73
2022/01/21 06:21:29;;;;;;;8.77;3.67;;;-0.10;77.10;;;;;;5070671;28;20043;-74
2022/01/21 06:23:55;;;;;;;10.05;4.28;;;-0.20;77.70;;;;;;5071123;28;20032;-74
2022/01/21 06:26:21;;;;;;;5.60;2.33;;;-0.20;77.40;;;;;;5067624;28;20140;-74
2022/01/21 06:28:46;;;;;;;4.47;2.10;;;-0.20;78.00;;;;;;5070162;28;20035;-74
2022/01/21 06:31:12;;;;;;;3.78;1.58;;;-0.10;77.00;;;;;;5084480;28;20665;-73
2022/01/21 06:33:38;;;;;;;7.28;2.40;;;-0.20;76.50;;;;;;5068009;28;20522;-73
2022/01/21 06:36:04;;;;;;;8.85;2.75;;;-0.20;76.80;;;;;;5068976;28;20017;-75
2022/01/21 06:38:30;;;;;;;10.73;4.13;;;-0.20;76.60;;;;;;5067582;28;20788;-74
2022/01/21 06:40:55;;;;;;;6.72;2.38;;;-0.30;76.80;;;;;;5063912;28;20549;-74
2022/01/21 06:43:21;;;;;;;7.25;2.95;;;-0.30;77.60;;;;;;5072848;28;20994;-75
2022/01/21 06:45:48;;;;;;;9.32;4.00;;;-0.30;78.00;;;;;;5068038;28;20036;-74
2022/01/21 06:48:14;;;;;;;9.90;3.28;;;-0.30;78.30;;;;;;5064099;28;20143;-74
2022/01/21 06:50:41;;;;;;;5.63;2.30;;;-0.30;78.80;;;;;;5070433;28;20024;-74
2022/01/21 06:53:08;;;;;;;2.58;1.10;;;-0.40;79.30;;;;;;5074528;28;20564;-73
2022/01/21 06:55:34;;;;;;;4.30;2.10;;;-0.40;79.40;;;;;;5065870;28;20025;-75
2022/01/21 06:58:00;;;;;;;4.00;1.33;;;-0.40;79.60;;;;;;5067721;28;20029;-75
2022/01/21 07:00:25;;;;;;;6.00;2.35;;;-0.40;79.60;;;;;;5066204;28;20082;-72
2022/01/21 07:02:53;;;;;;;10.93;1.77;;;-0.50;80.20;;;;;;5069845;28;20104;-72
2022/01/21 07:05:20;;;;;;;7.05;1.65;;;-0.50;80.50;;;;;;5067135;28;20039;-73
2022/01/21 07:07:45;;;;;;;5.45;1.60;;;-0.40;80.00;;;;;;5063600;28;20020;-71
2022/01/21 07:10:13;;;;;;;11.68;4.32;;;-0.40;79.70;;;;;;5067415;28;20063;-72
2022/01/21 07:12:41;;;;;;;15.35;5.03;;;-0.40;79.60;;;;;;5071809;28;20085;-72
2022/01/21 07:15:08;;;;;;;9.88;4.05;;;-0.40;80.40;;;;;;5067941;28;20030;-73
2022/01/21 07:17:34;;;;;;;734.35;318.58;;;-0.40;80.30;;;;;;5072157;28;20067;-73
2022/01/21 07:20:01;;;;;;;111.72;42.70;;;-0.40;81.30;;;;;;5069813;28;20174;-73
2022/01/21 07:22:27;;;;;;;19.42;5.90;;;-0.40;81.40;;;;;;5073516;28;20065;-69
2022/01/21 07:24:52;;;;;;;7.60;2.30;;;-0.40;81.50;;;;;;5070673;28;20141;-68
2022/01/21 07:27:18;;;;;;;10.63;1.92;;;-0.40;81.50;;;;;;5068354;28;20042;-66
2022/01/21 07:29:44;;;;;;;6.88;1.63;;;-0.40;81.80;;;;;;5067990;28;20024;-77
2022/01/21 07:32:10;;;;;;;5.50;1.00;;;-0.30;82.30;;;;;;5073523;28;20073;-75
2022/01/21 07:34:36;;;;;;;6.07;1.42;;;-0.30;82.30;;;;;;5068600;28;20502;-74
2022/01/21 07:37:02;;;;;;;4.55;1.27;;;-0.30;81.90;;;;;;5068969;28;20032;-72
2022/01/21 07:39:28;;;;;;;7.28;1.70;;;-0.20;81.70;;;;;;5070159;28;20032;-76
2022/01/21 07:41:54;;;;;;;7.20;1.70;;;-0.20;82.00;;;;;;5068362;28;20073;-75
2022/01/21 07:44:21;;;;;;;8.45;1.20;;;-0.20;82.50;;;;;;5065988;28;20119;-74
2022/01/21 07:46:47;;;;;;;2.58;1.10;;;-0.10;82.50;;;;;;5068786;28;20035;-75
2022/01/21 07:49:14;;;;;;;3.92;0.95;;;0.00;82.50;;;;;;5066565;28;20041;-75
2022/01/21 07:51:40;;;;;;;5.32;1.45;;;0.00;82.50;;;;;;5084982;28;20055;-76
2022/01/21 07:54:06;;;;;;;6.65;1.48;;;0.10;82.10;;;;;;5068913;28;20725;-76
2022/01/21 07:56:33;;;;;;;7.70;1.13;;;0.10;82.00;;;;;;5070131;28;20032;-75
2022/01/21 07:59:00;;;;;;;5.75;1.58;;;0.20;82.30;;;;;;5069086;28;20020;-74
2022/01/21 08:01:26;;;;;;;7.90;1.75;;;0.30;82.10;;;;;;5065101;28;20071;-76
2022/01/21 08:03:53;;;;;;;4.03;1.70;;;0.30;82.20;;;;;;5071063;28;20227;-66
2022/01/21 08:06:18;;;;;;;7.63;1.77;;;0.40;82.50;;;;;;5086794;28;20036;-67
2022/01/21 08:08:44;;;;;;;9.00;2.33;;;0.40;82.20;;;;;;5066280;28;20028;-70
2022/01/21 08:11:10;;;;;;;11.40;1.70;;;0.50;82.20;;;;;;5071650;28;20028;-72
2022/01/21 08:13:36;;;;;;;6.60;1.40;;;0.50;81.70;;;;;;5070007;28;20587;-75
2022/01/21 08:16:02;;;;;;;8.45;1.65;;;0.60;82.00;;;;;;5074185;28;20039;-73
2022/01/21 08:18:27;;;;;;;8.20;1.50;;;0.60;82.10;;;;;;5069943;28;20032;-76
2022/01/21 08:20:53;;;;;;;4.72;1.33;;;0.60;81.80;;;;;;5067232;28;20064;-75
2022/01/21 08:23:19;;;;;;;6.30;1.70;;;0.70;82.00;;;;;;5074824;28;20086;-75
2022/01/21 08:25:45;;;;;;;9.55;2.00;;;0.70;82.80;;;;;;5074002;28;20071;-75
2022/01/21 08:28:10;;;;;;;7.88;1.60;;;0.80;82.70;;;;;;5067125;28;20162;-75
2022/01/21 08:30:37;;;;;;;6.90;1.27;;;0.90;82.50;;;;;;5083271;28;20036;-76
2022/01/21 08:33:04;;;;;;;13.43;2.22;;;1.00;82.60;;;;;;5069313;28;20067;-76
2022/01/21 08:35:30;;;;;;;10.15;1.73;;;1.10;82.40;;;;;;5069790;28;20621;-74
2022/01/21 08:37:56;;;;;;;12.73;3.10;;;1.10;81.90;;;;;;5069903;28;20052;-76
2022/01/21 08:40:23;;;;;;;5.93;2.47;;;1.30;82.00;;;;;;5067840;28;20498;-76
2022/01/21 08:42:49;;;;;;;6.78;1.88;;;1.30;82.30;;;;;;5075201;28;20074;-77
2022/01/21 08:45:15;;;;;;;12.80;2.30;;;1.50;82.20;;;;;;5074606;28;20123;-77
2022/01/21 08:47:42;;;;;;;11.13;2.20;;;1.50;81.50;;;;;;5076130;28;20057;-76
2022/01/21 08:50:11;;;;;;;15.90;2.25;;;1.60;81.40;;;;;;5076591;28;20810;-76
2022/01/21 08:52:37;;;;;;;9.98;1.90;;;1.70;81.10;;;;;;5074168;28;20682;-76
2022/01/21 08:55:09;;;;;;;5.90;1.95;;;1.80;81.00;;;;;;5092287;28;20035;-76
2022/01/21 08:57:37;;;;;;;6.30;1.85;;;2.00;80.50;;;;;;5075695;28;21214;-73
2022/01/21 09:00:20;;;;;;;7.15;1.77;;;2.10;80.50;;;;;;5073616;28;20492;-76
2022/01/21 09:02:47;;;;;;;5.85;1.83;;;2.20;80.20;;;;;;5073045;28;20028;-77
2022/01/21 09:05:13;;;;;;;7.45;2.05;;;2.40;79.60;;;;;;5075293;28;20537;-75
2022/01/21 09:07:40;;;;;;;8.15;1.50;;;2.90;78.80;;;;;;5073131;28;20024;-74
2022/01/21 09:10:07;;;;;;;10.15;1.80;;;3.30;76.60;;;;;;5073642;28;20029;-75
2022/01/21 09:12:33;;;;;;;12.13;3.03;;;3.40;76.10;;;;;;5073724;28;20497;-74
2022/01/21 09:15:00;;;;;;;8.07;1.77;;;3.40;76.30;;;;;;5077603;28;20032;-68
2022/01/21 09:17:26;;;;;;;10.18;2.40;;;3.40;76.30;;;;;;5066779;28;20035;-67
2022/01/21 09:19:52;;;;;;;9.15;1.60;;;3.40;76.80;;;;;;5072573;28;20085;-66
2022/01/21 09:22:18;;;;;;;12.98;2.20;;;3.60;76.80;;;;;;5071477;28;20126;-67
2022/01/21 09:24:44;;;;;;;10.98;1.85;;;4.30;74.60;;;;;;5073285;28;20063;-68
2022/01/21 09:27:10;;;;;;;7.90;1.58;;;5.50;70.80;;;;;;5088516;28;20039;-68
2022/01/21 09:29:36;;;;;;;5.32;1.95;;;6.70;65.80;;;;;;5077815;28;20082;-68
2022/01/21 09:32:04;;;;;;;5.75;2.00;;;7.70;61.90;;;;;;5074120;28;20083;-69
2022/01/21 09:34:31;;;;;;;5.82;1.55;;;8.30;59.20;;;;;;5069891;28;20092;-67
2022/01/21 09:36:59;;;;;;;3.42;1.30;;;9.00;56.90;;;;;;5072714;28;20411;-68
2022/01/21 09:39:27;;;;;;;7.63;1.77;;;9.80;54.50;;;;;;5088242;28;20075;-68
2022/01/21 09:41:59;;;;;;;8.32;2.00;;;10.50;52.60;;;;;;5073344;28;20020;-69
2022/01/21 09:44:25;;;;;;;7.78;1.88;;;10.80;50.70;;;;;;5074592;28;20035;-68
2022/01/21 09:46:53;;;;;;;8.02;1.45;;;10.90;50.30;;;;;;5070332;28;20064;-67
2022/01/21 09:52:21;;;;;;;9.15;1.67;;;10.80;50.30;;;;;;5093188;28;20028;-67
2022/01/21 09:54:48;;;;;;;9.65;1.50;;;10.70;49.00;;;;;;5072989;28;20060;-67
2022/01/21 09:57:23;;;;;;;9.20;1.58;;;10.60;50.50;;;;;;5075256;28;20416;-68
2022/01/21 09:59:51;;;;;;;7.15;1.67;;;10.90;49.20;;;;;;5077857;28;20089;-68
2022/01/21 10:02:19;;;;;;;11.68;1.95;;;11.50;48.90;;;;;;5076547;28;20041;-68
2022/01/21 10:04:49;;;;;;;2.67;1.08;;;12.00;47.00;;;;;;5074050;28;20034;-68
2022/01/21 10:07:17;;;;;;;6.85;1.60;;;12.30;46.60;;;;;;5086430;28;20514;-68
2022/01/21 10:09:44;;;;;;;6.22;1.20;;;12.40;45.80;;;;;;5070153;28;20736;-68
2022/01/21 10:12:11;;;;;;;8.82;1.40;;;12.80;45.10;;;;;;5069725;28;20063;-68
2022/01/21 10:14:38;;;;;;;10.00;1.42;;;13.00;44.60;;;;;;5070034;28;20039;-69
2022/01/21 10:17:06;;;;;;;9.65;1.50;;;12.80;45.10;;;;;;5073109;28;20471;-69
2022/01/21 10:19:34;;;;;;;5.50;1.63;;;12.70;45.30;;;;;;5071298;28;20028;-67
2022/01/21 10:22:15;;;;;;;8.35;1.30;;;12.60;45.40;;;;;;5072513;28;20020;-68
2022/01/21 10:25:00;;;;;;;5.50;1.27;;;12.30;45.80;;;;;;5070741;28;20035;-69
2022/01/21 10:27:30;;;;;;;7.70;3.75;;;11.90;45.80;;;;;;5074073;28;20172;-67
2022/01/21 10:29:56;;;;;;;11.10;2.42;;;11.40;47.20;;;;;;5072743;28;20045;-68
2022/01/21 10:32:36;;;;;;;5.32;1.30;;;10.80;48.80;;;;;;5072782;28;20038;-68
2022/01/21 10:35:04;;;;;;;8.75;1.63;;;10.10;50.10;;;;;;5070081;28;20473;-69
2022/01/21 10:37:35;;;;;;;7.50;1.48;;;10.00;51.10;;;;;;5071577;28;20086;-68
2022/01/21 10:40:07;;;;;;;5.47;1.10;;;10.10;50.40;;;;;;5069640;28;20040;-68
2022/01/21 10:42:33;;;;;;;9.30;1.48;;;10.10;50.60;;;;;;5084513;28;20033;-68
2022/01/21 10:44:59;;;;;;;7.03;1.10;;;10.40;50.60;;;;;;5073546;28;20506;-68
2022/01/21 10:47:29;;;;;;;7.53;1.70;;;10.70;50.30;;;;;;5067009;28;20040;-68
2022/01/21 10:50:11;;;;;;;7.10;1.42;;;10.90;49.20;;;;;;5069100;28;20032;-66
2022/01/21 10:52:45;;;;;;;6.03;1.50;;;10.60;49.20;;;;;;5086131;28;20031;-68
2022/01/21 10:55:28;;;;;;;6.82;1.60;;;10.30;49.80;;;;;;5087983;28;20067;-69
2022/01/21 10:58:14;;;;;;;4.57;1.00;;;9.80;51.80;;;;;;5072336;28;20127;-69
2022/01/21 11:01:01;;;;;;;10.63;1.63;;;9.20;52.80;;;;;;5076186;28;20054;-69
2022/01/21 11:03:31;;;;;;;10.60;2.55;;;8.50;54.60;;;;;;5070886;28;20038;-68
2022/01/21 11:06:17;;;;;;;5.53;1.27;;;8.10;54.50;;;;;;5073650;28;20058;-68
2022/01/21 11:08:43;;;;;;;8.55;1.77;;;7.70;54.80;;;;;;5082541;28;20090;-68
2022/01/21 11:11:09;;;;;;;8.80;1.40;;;7.40;56.40;;;;;;5072351;28;20029;-69
2022/01/21 11:13:37;;;;;;;4.32;0.93;;;7.20;56.60;;;;;;5064856;28;22130;-68
2022/01/21 11:16:09;;;;;;;7.32;1.17;;;7.00;57.50;;;;;;5079124;28;20422;-68
2022/01/21 11:19:08;;;;;;;7.00;1.40;;;7.00;57.20;;;;;;5085043;28;20032;-69
2022/01/21 11:21:39;;;;;;;6.97;1.35;;;7.20;57.40;;;;;;5070891;28;20024;-68
2022/01/21 11:24:06;;;;;;;7.25;1.75;;;7.40;56.10;;;;;;5074136;28;20047;-68
2022/01/21 11:26:32;;;;;;;3.40;1.10;;;7.80;55.10;;;;;;5069570;28;20051;-68
2022/01/21 11:29:00;;;;;;;6.65;1.45;;;7.80;55.30;;;;;;5073416;28;20717;-68
2022/01/21 11:31:28;;;;;;;4.13;1.00;;;7.50;54.90;;;;;;5073084;28;20044;-67
2022/01/21 11:33:54;;;;;;;7.82;1.45;;;7.20;56.70;;;;;;5072791;28;20110;-67
2022/01/21 11:36:19;;;;;;;7.07;1.27;;;6.90;55.30;;;;;;5069239;28;20032;-68
2022/01/21 11:38:46;;;;;;;10.43;2.28;;;6.80;56.60;;;;;;5069752;28;20084;-68
2022/01/21 11:41:14;;;;;;;5.25;1.15;;;6.70;58.20;;;;;;5070439;28;20032;-68
2022/01/21 11:43:47;;;;;;;8.85;3.45;;;6.50;57.00;;;;;;5072712;28;20035;-69
2022/01/21 11:49:19;;;;;;;7.72;2.30;;;6.40;58.90;;;;;;5081296;28;20090;-69
2022/01/21 11:51:45;;;;;;;8.05;2.42;;;6.50;58.70;;;;;;5068401;28;20028;-68
2022/01/21 11:54:13;;;;;;;1.73;0.90;;;6.50;58.30;;;;;;5080999;28;20389;-69
2022/01/21 11:56:48;;;;;;;6.25;1.42;;;6.50;58.30;;;;;;5066486;28;20032;-68
2022/01/21 12:01:56;;;;;;;4.65;1.88;;;6.30;58.70;;;;;;5067618;28;20055;-67
2022/01/21 12:04:31;;;;;;;6.45;0.90;;;6.40;58.40;;;;;;5067281;28;20040;-68
2022/01/21 12:06:59;;;;;;;3.95;0.73;;;6.30;57.60;;;;;;5074072;28;20125;-68
2022/01/21 12:09:55;;;;;;;2.55;1.08;;;6.20;58.00;;;;;;5063550;28;20064;-68
2022/01/21 12:12:24;;;;;;;6.18;1.13;;;6.20;59.00;;;;;;5067996;28;20065;-69
2022/01/21 12:15:00;;;;;;;2.22;0.80;;;6.20;59.40;;;;;;5068668;28;20043;-68
2022/01/21 12:17:49;;;;;;;3.70;0.70;;;6.20;57.80;;;;;;5086915;28;20042;-68
2022/01/21 12:20:15;;;;;;;6.97;0.82;;;6.20;58.40;;;;;;5086685;28;20126;-68
2022/01/21 12:22:41;;;;;;;2.92;0.95;;;6.20;57.90;;;;;;5081599;28;20051;-68
2022/01/21 12:25:11;;;;;;;3.30;1.08;;;6.10;58.50;;;;;;5072267;28;20028;-68
2022/01/21 12:27:38;;;;;;;3.92;0.88;;;6.10;59.00;;;;;;5073112;28;20036;-68
2022/01/21 12:30:26;;;;;;;3.33;1.10;;;6.10;59.10;;;;;;5068260;28;20028;-68
2022/01/21 12:32:55;;;;;;;3.15;1.13;;;6.10;58.90;;;;;;5070525;28;20043;-68
2022/01/21 12:36:02;;;;;;;6.20;1.13;;;6.00;58.20;;;;;;5067068;28;20032;-68
2022/01/21 12:41:15;;;;;;;3.35;1.13;;;5.90;58.40;;;;;;5077876;28;20039;-70
2022/01/21 12:43:53;;;;;;;2.13;0.80;;;5.90;59.20;;;;;;5067393;28;20035;-68
2022/01/21 12:46:28;;;;;;;5.30;1.40;;;5.90;59.00;;;;;;5073243;28;20048;-68
2022/01/21 12:48:55;;;;;;;2.78;0.70;;;5.80;58.90;;;;;;5079286;28;20067;-68
2022/01/21 12:52:14;;;;;;;3.22;0.68;;;5.80;59.40;;;;;;5085097;28;20218;-69
2022/01/21 12:57:26;;;;;;;5.30;1.00;;;5.90;59.80;;;;;;5074625;28;20127;-69
2022/01/21 12:59:57;;;;;;;4.60;1.27;;;6.00;59.80;;;;;;5058756;28;20039;-69
2022/01/21 13:02:28;;;;;;;7.97;1.73;;;5.90;59.30;;;;;;5070110;28;20063;-68
2022/01/21 13:05:18;;;;;;;4.15;0.90;;;6.00;58.90;;;;;;5077890;28;20036;-68
2022/01/21 13:08:22;;;;;;;3.63;0.70;;;5.80;58.50;;;;;;5068252;28;20145;-67
2022/01/21 13:10:48;;;;;;;4.20;0.82;;;5.70;58.20;;;;;;5073636;28;20056;-68
2022/01/21 13:13:33;;;;;;;4.18;0.80;;;5.60;58.10;;;;;;5073120;28;20036;-68
2022/01/21 13:15:59;;;;;;;5.30;0.80;;;5.50;59.30;;;;;;5070266;28;20024;-68
2022/01/21 13:18:31;;;;;;;1.55;0.73;;;5.40;59.40;;;;;;5087675;28;20060;-68
2022/01/21 13:21:07;;;;;;;2.58;0.65;;;5.40;58.80;;;;;;5067987;28;20031;-69
2022/01/21 13:23:58;;;;;;;1.92;0.88;;;5.40;57.70;;;;;;5075738;28;20124;-69
2022/01/21 13:26:30;;;;;;;2.88;0.70;;;5.30;56.50;;;;;;5069987;28;20068;-69
2022/01/21 13:29:05;;;;;;;3.47;1.02;;;5.30;58.30;;;;;;5076277;28;20761;-69
2022/01/21 13:31:34;;;;;;;2.70;0.57;;;5.40;58.20;;;;;;5073380;28;20039;-69
2022/01/21 13:34:10;;;;;;;2.15;0.88;;;5.40;58.10;;;;;;5087663;28;20038;-69
2022/01/21 13:36:47;;;;;;;4.07;1.58;;;5.40;57.70;;;;;;5071862;28;20028;-69
2022/01/21 13:39:18;;;;;;;4.75;0.80;;;5.40;58.80;;;;;;5075648;28;20032;-69
2022/01/21 13:41:56;;;;;;;3.42;0.90;;;5.40;58.10;;;;;;5067893;28;20028;-68
2022/01/21 13:44:29;;;;;;;4.70;0.85;;;5.50;57.10;;;;;;5065762;28;20773;-68
2022/01/21 13:46:57;;;;;;;4.90;0.85;;;5.40;58.10;;;;;;5070375;28;20130;-68
2022/01/21 13:49:24;;;;;;;6.03;1.05;;;5.40;56.30;;;;;;5068913;28;20718;-68
2022/01/21 13:52:00;;;;;;;2.63;0.90;;;5.40;56.60;;;;;;5068345;28;20067;-68
2022/01/21 13:54:37;;;;;;;7.40;0.95;;;5.40;56.60;;;;;;5067583;28;20040;-69
2022/01/21 13:57:05;;;;;;;3.20;0.70;;;5.40;57.90;;;;;;5070582;28;20032;-67
2022/01/21 13:59:31;;;;;;;2.13;0.75;;;5.40;57.60;;;;;;5070928;28;20082;-69
2022/01/21 14:02:21;;;;;;;3.63;0.60;;;5.40;57.90;;;;;;5069258;28;20044;-68
2022/01/21 14:04:54;;;;;;;4.65;0.68;;;5.40;57.00;;;;;;5074738;28;20048;-68
2022/01/21 14:07:25;;;;;;;1.48;0.60;;;5.30;56.40;;;;;;5068959;28;20437;-68
2022/01/21 14:09:51;;;;;;;2.63;0.90;;;5.30;55.80;;;;;;5073319;28;20033;-68